Time;durP1;ratioP1;P1;durP2;ratioP2;P2;SDS_P1;SDS_P2;PMS_P1;PMS_P2;Temp;Humidity;BMP_temperature;BMP_pressure;BME280_temperature;BME280_humidity;BME280_pressure;Samples;Min_cycle;Max_cycle;Signal;HPM_P1;HPM_P2
2023/01/01 00:00:44;;;;;;;25.77;13.68;;;;;;;;;;6269623;22;20080;-89
2023/01/01 00:03:16;;;;;;;25.27;12.70;;;;;;;;;;6268119;22;20043;-88
2023/01/01 00:05:43;;;;;;;19.83;10.77;;;;;;;;;;6268382;22;20070;-88
2023/01/01 00:08:12;;;;;;;27.02;10.15;;;;;;;;;;6275051;22;20028;-89
2023/01/01 00:10:39;;;;;;;20.88;8.55;;;;;;;;;;6189229;23;20034;-88
2023/01/01 00:13:12;;;;;;;20.00;7.75;;;;;;;;;;6246761;22;20062;-89
2023/01/01 00:15:45;;;;;;;19.95;7.32;;;;;;;;;;6240176;23;20020;-89
2023/01/01 00:18:38;;;;;;;16.30;7.07;;;;;;;;;;6277586;22;20012;-89
2023/01/01 00:21:11;;;;;;;17.83;5.88;;;;;;;;;;6279211;22;20024;-89
2023/01/01 00:23:38;;;;;;;15.20;5.95;;;;;;;;;;6255968;22;20023;-89
2023/01/01 00:26:10;;;;;;;17.88;6.07;;;;;;;;;;6224594;23;20024;-90
2023/01/01 00:28:45;;;;;;;16.83;5.97;;;;;;;;;;6223618;23;20099;-89
2023/01/01 00:31:16;;;;;;;13.25;6.13;;;;;;;;;;6198534;23;20036;-90
2023/01/01 00:33:52;;;;;;;14.38;6.40;;;;;;;;;;6253004;22;20039;-89
2023/01/01 00:36:21;;;;;;;13.38;6.60;;;;;;;;;;6226072;22;20020;-89
2023/01/01 00:38:50;;;;;;;16.55;5.85;;;;;;;;;;6242806;23;20020;-90
2023/01/01 00:41:43;;;;;;;16.55;5.75;;;;;;;;;;6219326;23;20024;-90
2023/01/01 00:44:11;;;;;;;16.85;4.82;;;;;;;;;;6217826;23;20019;-90
2023/01/01 00:46:40;;;;;;;15.35;5.45;;;;;;;;;;6285073;22;20026;-90
2023/01/01 00:49:12;;;;;;;16.20;5.28;;;;;;;;;;6230516;23;20024;-89
2023/01/01 00:51:44;;;;;;;10.85;4.90;;;;;;;;;;6185626;23;20021;-87
2023/01/01 00:54:12;;;;;;;14.18;4.72;;;;;;;;;;6241375;23;20031;-88
2023/01/01 00:56:40;;;;;;;11.10;4.55;;;;;;;;;;6181474;23;20079;-88
2023/01/01 00:59:14;;;;;;;17.95;4.90;;;;;;;;;;6214509;23;20013;-88
2023/01/01 01:01:42;;;;;;;11.77;4.55;;;;;;;;;;6215850;23;20012;-89
2023/01/01 01:04:14;;;;;;;17.73;4.65;;;;;;;;;;6229703;23;20016;-89
2023/01/01 01:06:41;;;;;;;18.77;4.60;;;;;;;;;;6231337;23;20027;-89
2023/01/01 01:09:10;;;;;;;10.85;5.13;;;;;;;;;;6217063;23;20583;-89
2023/01/01 01:11:38;;;;;;;14.68;5.25;;;;;;;;;;6192599;23;20044;-89
2023/01/01 01:14:31;;;;;;;14.15;4.47;;;;;;;;;;6225763;23;20077;-89
2023/01/01 01:16:59;;;;;;;13.52;4.60;;;;;;;;;;6224724;23;20027;-89
2023/01/01 01:19:51;;;;;;;10.13;3.92;;;;;;;;;;6236599;23;20012;-89
2023/01/01 01:22:19;;;;;;;9.70;4.28;;;;;;;;;;6231944;23;20044;-88
2023/01/01 01:24:56;;;;;;;14.55;5.22;;;;;;;;;;6231782;23;20023;-88
2023/01/01 01:27:24;;;;;;;11.02;4.78;;;;;;;;;;6209297;23;20025;-88
2023/01/01 01:30:16;;;;;;;18.10;4.70;;;;;;;;;;6232023;23;20314;-88
2023/01/01 01:32:43;;;;;;;13.13;4.72;;;;;;;;;;6232292;23;20043;-89
2023/01/01 01:38:03;;;;;;;13.40;4.78;;;;;;;;;;6234376;23;20020;-88
2023/01/01 01:40:32;;;;;;;11.07;5.00;;;;;;;;;;6237246;23;20023;-88
2023/01/01 01:43:00;;;;;;;11.70;4.20;;;;;;;;;;6235410;23;20019;-88
2023/01/01 01:45:27;;;;;;;15.98;4.50;;;;;;;;;;6236798;23;20016;-88
2023/01/01 01:48:00;;;;;;;10.75;4.43;;;;;;;;;;6239966;23;20016;-89
2023/01/01 01:50:31;;;;;;;14.75;4.10;;;;;;;;;;6216336;23;20081;-88
2023/01/01 01:53:09;;;;;;;11.35;3.55;;;;;;;;;;6239554;23;20012;-89
2023/01/01 01:56:05;;;;;;;12.88;4.18;;;;;;;;;;6237519;23;20437;-88
2023/01/01 01:58:58;;;;;;;9.55;3.60;;;;;;;;;;6239991;23;20035;-87
2023/01/01 02:01:26;;;;;;;12.40;3.72;;;;;;;;;;6230215;23;20091;-88
2023/01/01 02:04:01;;;;;;;8.80;3.60;;;;;;;;;;6243005;23;20017;-87
2023/01/01 02:06:31;;;;;;;7.13;2.88;;;;;;;;;;6207479;23;20047;-87
2023/01/01 02:09:05;;;;;;;13.77;4.03;;;;;;;;;;6183358;23;20016;-88
2023/01/01 02:11:38;;;;;;;12.43;3.65;;;;;;;;;;6208042;23;20020;-88
2023/01/01 02:14:06;;;;;;;16.83;3.70;;;;;;;;;;6207971;23;20016;-87
2023/01/01 02:17:08;;;;;;;10.30;3.97;;;;;;;;;;6242697;23;20080;-88
2023/01/01 02:19:48;;;;;;;12.77;3.55;;;;;;;;;;6182357;23;20077;-88
2023/01/01 02:23:14;;;;;;;9.88;3.30;;;;;;;;;;6232011;23;20009;-88
2023/01/01 02:26:18;;;;;;;11.18;3.55;;;;;;;;;;6207073;23;20043;-88
2023/01/01 02:28:57;;;;;;;9.88;3.03;;;;;;;;;;6208037;23;20346;-88
2023/01/01 02:31:42;;;;;;;13.75;3.60;;;;;;;;;;6232412;23;20017;-88
2023/01/01 02:34:13;;;;;;;9.95;3.65;;;;;;;;;;6233675;23;20016;-88
2023/01/01 02:36:53;;;;;;;12.10;3.40;;;;;;;;;;6244441;23;20020;-88
2023/01/01 02:39:27;;;;;;;10.40;2.85;;;;;;;;;;6209405;23;20092;-88
2023/01/01 02:42:03;;;;;;;13.98;3.20;;;;;;;;;;6219884;23;20024;-88
2023/01/01 02:44:33;;;;;;;10.93;3.72;;;;;;;;;;6208834;23;20443;-88
2023/01/01 02:47:25;;;;;;;11.02;3.38;;;;;;;;;;6198271;23;20016;-88
2023/01/01 02:50:27;;;;;;;12.55;3.90;;;;;;;;;;6254248;23;20333;-88
2023/01/01 02:53:00;;;;;;;10.35;3.78;;;;;;;;;;6230864;23;20846;-89
2023/01/01 02:55:54;;;;;;;13.00;3.90;;;;;;;;;;6230548;23;20016;-88
2023/01/01 03:01:46;;;;;;;15.65;3.22;;;;;;;;;;6260898;23;20502;-89
2023/01/01 03:05:22;;;;;;;10.65;3.35;;;;;;;;;;6255411;23;20087;-88
2023/01/01 03:08:13;;;;;;;7.40;3.00;;;;;;;;;;6132698;23;20076;-88
2023/01/01 03:10:52;;;;;;;10.13;3.70;;;;;;;;;;6132457;23;20092;-88
2023/01/01 03:13:31;;;;;;;13.45;3.95;;;;;;;;;;6132954;23;20150;-88
2023/01/01 03:16:09;;;;;;;11.68;3.55;;;;;;;;;;6110156;23;20052;-87
2023/01/01 03:18:45;;;;;;;12.45;4.03;;;;;;;;;;6123808;23;20121;-88
2023/01/01 03:21:21;;;;;;;9.52;4.32;;;;;;;;;;6133573;23;20470;-88
2023/01/01 03:24:17;;;;;;;14.38;5.13;;;;;;;;;;6134123;23;20021;-88
2023/01/01 03:26:54;;;;;;;12.63;4.38;;;;;;;;;;6133467;23;20060;-87
2023/01/01 03:29:47;;;;;;;11.88;4.85;;;;;;;;;;6111082;23;20013;-88
2023/01/01 03:33:00;;;;;;;10.80;4.85;;;;;;;;;;6113098;23;20018;-88
2023/01/01 03:35:43;;;;;;;12.05;4.45;;;;;;;;;;6135527;23;20080;-88
2023/01/01 03:38:20;;;;;;;12.43;5.20;;;;;;;;;;6125393;23;20045;-88
2023/01/01 03:40:52;;;;;;;11.15;5.40;;;;;;;;;;6102616;23;20022;-88
2023/01/01 03:43:43;;;;;;;11.38;4.45;;;;;;;;;;6211447;23;20065;-88
2023/01/01 03:46:14;;;;;;;12.70;5.18;;;;;;;;;;6170859;23;20031;-89
2023/01/01 03:48:56;;;;;;;14.63;5.05;;;;;;;;;;6215064;23;20024;-88
2023/01/01 03:51:49;;;;;;;14.27;5.25;;;;;;;;;;6224640;23;20020;-88
2023/01/01 03:54:39;;;;;;;14.98;5.22;;;;;;;;;;6225938;23;20062;-88
2023/01/01 03:57:39;;;;;;;16.23;5.22;;;;;;;;;;6224584;23;20336;-88
2023/01/01 04:00:08;;;;;;;13.98;5.20;;;;;;;;;;6224134;23;20012;-88
2023/01/01 04:02:49;;;;;;;12.00;5.45;;;;;;;;;;6226163;23;20027;-88
2023/01/01 04:05:19;;;;;;;10.13;5.10;;;;;;;;;;6225122;23;20021;-88
2023/01/01 04:07:52;;;;;;;11.23;4.70;;;;;;;;;;6224413;23;20345;-88
2023/01/01 04:10:21;;;;;;;11.52;5.25;;;;;;;;;;6215491;23;20022;-88
2023/01/01 04:12:54;;;;;;;15.38;5.35;;;;;;;;;;6225947;23;20067;-88
2023/01/01 04:15:25;;;;;;;9.43;4.50;;;;;;;;;;6225754;23;20017;-88
2023/01/01 04:17:58;;;;;;;9.68;4.68;;;;;;;;;;6226178;23;20445;-89
2023/01/01 04:20:26;;;;;;;8.07;4.22;;;;;;;;;;6189817;23;20028;-88
2023/01/01 04:22:58;;;;;;;10.43;4.35;;;;;;;;;;6225296;23;20099;-88
2023/01/01 04:25:50;;;;;;;9.55;4.10;;;;;;;;;;6206817;23;20016;-88
2023/01/01 04:28:19;;;;;;;12.15;5.15;;;;;;;;;;6190895;23;20063;-88
2023/01/01 04:30:46;;;;;;;13.10;4.20;;;;;;;;;;6228550;23;20495;-88
2023/01/01 04:33:15;;;;;;;9.63;4.38;;;;;;;;;;6225918;23;20016;-88
2023/01/01 04:36:09;;;;;;;17.17;4.80;;;;;;;;;;6227930;23;20016;-88
2023/01/01 04:38:37;;;;;;;14.63;5.97;;;;;;;;;;6227001;23;20052;-88
2023/01/01 04:41:07;;;;;;;12.55;4.50;;;;;;;;;;6226104;23;20021;-88
2023/01/01 04:43:33;;;;;;;12.48;4.72;;;;;;;;;;6227278;23;20016;-88
2023/01/01 04:46:05;;;;;;;13.05;4.28;;;;;;;;;;6225546;23;20019;-88
2023/01/01 04:48:34;;;;;;;8.65;3.55;;;;;;;;;;6227068;23;20031;-88
2023/01/01 04:51:03;;;;;;;11.98;3.97;;;;;;;;;;6229863;23;20080;-88
2023/01/01 04:53:33;;;;;;;13.13;4.15;;;;;;;;;;6230974;23;20030;-88
2023/01/01 04:56:04;;;;;;;12.32;3.78;;;;;;;;;;6258210;23;20534;-88
2023/01/01 04:58:33;;;;;;;11.77;3.92;;;;;;;;;;6258286;23;20016;-88
2023/01/01 05:01:02;;;;;;;10.93;3.60;;;;;;;;;;6231984;23;20020;-88
2023/01/01 05:03:36;;;;;;;13.60;4.90;;;;;;;;;;6229950;23;20460;-88
2023/01/01 05:06:07;;;;;;;10.35;3.60;;;;;;;;;;6257523;23;20023;-88
2023/01/01 05:08:36;;;;;;;12.85;3.58;;;;;;;;;;6205765;23;20407;-87
2023/01/01 05:11:30;;;;;;;11.13;3.50;;;;;;;;;;6230856;23;20016;-88
2023/01/01 05:13:59;;;;;;;8.48;3.70;;;;;;;;;;6242330;23;20357;-88
2023/01/01 05:16:28;;;;;;;8.15;3.50;;;;;;;;;;6257691;23;20024;-88
2023/01/01 05:18:56;;;;;;;12.30;3.08;;;;;;;;;;6257515;23;20016;-88
2023/01/01 05:21:26;;;;;;;8.27;2.88;;;;;;;;;;6220780;23;20027;-88
2023/01/01 05:24:02;;;;;;;10.55;3.25;;;;;;;;;;6220396;23;20023;-88
2023/01/01 05:26:54;;;;;;;8.20;3.85;;;;;;;;;;6230361;23;20436;-88
2023/01/01 05:29:23;;;;;;;7.97;3.22;;;;;;;;;;6219915;23;20020;-87
2023/01/01 05:31:50;;;;;;;8.80;3.30;;;;;;;;;;6229692;23;20074;-88
2023/01/01 05:34:17;;;;;;;12.93;3.70;;;;;;;;;;6256498;23;20017;-88
2023/01/01 05:36:49;;;;;;;13.93;3.40;;;;;;;;;;6257042;23;20019;-88
2023/01/01 05:39:17;;;;;;;15.35;3.75;;;;;;;;;;6231526;23;20018;-88
2023/01/01 05:41:50;;;;;;;14.57;3.83;;;;;;;;;;6258177;23;20023;-88
2023/01/01 05:44:18;;;;;;;8.98;3.72;;;;;;;;;;6231058;23;20020;-88
2023/01/01 05:46:45;;;;;;;12.65;3.65;;;;;;;;;;6220275;23;20070;-88
2023/01/01 05:49:13;;;;;;;13.52;4.00;;;;;;;;;;6257504;23;20066;-88
2023/01/01 05:51:41;;;;;;;11.68;3.60;;;;;;;;;;6230585;23;20444;-88
2023/01/01 05:57:07;;;;;;;11.23;4.00;;;;;;;;;;6255537;23;20074;-88
2023/01/01 05:59:36;;;;;;;9.57;3.45;;;;;;;;;;6257685;23;20036;-88
2023/01/01 06:02:03;;;;;;;8.82;2.78;;;;;;;;;;6228597;23;20095;-88
2023/01/01 06:04:31;;;;;;;7.80;3.15;;;;;;;;;;6192623;23;20020;-87
2023/01/01 06:07:23;;;;;;;8.68;2.85;;;;;;;;;;6255829;23;20413;-89
2023/01/01 06:09:56;;;;;;;6.85;2.60;;;;;;;;;;6230226;23;20016;-89
2023/01/01 06:12:23;;;;;;;8.90;2.60;;;;;;;;;;6229686;23;20041;-89
2023/01/01 06:14:51;;;;;;;7.72;2.88;;;;;;;;;;6231173;23;20293;-88
2023/01/01 06:17:19;;;;;;;6.72;2.50;;;;;;;;;;6257384;23;20020;-88
2023/01/01 06:19:47;;;;;;;9.45;2.33;;;;;;;;;;6230907;23;20039;-88
2023/01/01 06:22:15;;;;;;;9.32;2.63;;;;;;;;;;6229646;23;20020;-88
2023/01/01 06:24:44;;;;;;;12.77;3.10;;;;;;;;;;6257103;23;20043;-89
2023/01/01 06:27:11;;;;;;;9.07;2.85;;;;;;;;;;6170913;23;20016;-88
2023/01/01 06:29:39;;;;;;;6.18;2.17;;;;;;;;;;6219622;23;20027;-87
2023/01/01 06:32:11;;;;;;;12.38;3.28;;;;;;;;;;6231316;23;20083;-88
2023/01/01 06:34:39;;;;;;;7.10;2.63;;;;;;;;;;6219933;23;20024;-88
2023/01/01 06:37:08;;;;;;;5.15;2.47;;;;;;;;;;6230983;23;20016;-88
2023/01/01 06:39:35;;;;;;;11.95;2.20;;;;;;;;;;6219877;23;20384;-88
2023/01/01 06:42:04;;;;;;;9.60;2.40;;;;;;;;;;6255723;23;20020;-89
2023/01/01 06:44:35;;;;;;;5.68;2.35;;;;;;;;;;6219224;23;20024;-88
2023/01/01 06:47:03;;;;;;;6.85;2.30;;;;;;;;;;6230342;23;20515;-88
2023/01/01 06:49:32;;;;;;;7.28;2.42;;;;;;;;;;6257046;23;20022;-88
2023/01/01 06:51:59;;;;;;;7.13;2.42;;;;;;;;;;6230929;23;20102;-89
2023/01/01 06:54:37;;;;;;;7.88;2.45;;;;;;;;;;6257691;23;20082;-89
2023/01/01 06:57:05;;;;;;;5.88;2.08;;;;;;;;;;6231128;23;20103;-88
2023/01/01 06:59:33;;;;;;;7.53;2.20;;;;;;;;;;6194884;23;20019;-89
2023/01/01 07:02:01;;;;;;;7.90;2.40;;;;;;;;;;6219705;23;20102;-89
2023/01/01 07:04:29;;;;;;;10.40;2.88;;;;;;;;;;6197197;23;20020;-88
2023/01/01 07:07:22;;;;;;;10.48;2.60;;;;;;;;;;6258189;23;20031;-88
2023/01/01 07:10:14;;;;;;;9.60;2.45;;;;;;;;;;6177384;23;20336;-88
2023/01/01 07:12:41;;;;;;;8.07;2.80;;;;;;;;;;6206899;23;20016;-88
2023/01/01 07:15:33;;;;;;;7.60;2.33;;;;;;;;;;6231046;23;20012;-88
2023/01/01 07:18:06;;;;;;;9.68;2.60;;;;;;;;;;6194214;23;20094;-88
2023/01/01 07:20:33;;;;;;;4.90;2.35;;;;;;;;;;6231209;23;20016;-89
2023/01/01 07:23:01;;;;;;;8.93;2.38;;;;;;;;;;6205649;23;20016;-89
2023/01/01 07:25:32;;;;;;;7.63;2.00;;;;;;;;;;6257154;23;20046;-89
2023/01/01 07:27:59;;;;;;;9.75;2.50;;;;;;;;;;6258829;23;20444;-88
2023/01/01 07:30:27;;;;;;;5.57;2.03;;;;;;;;;;6196315;23;20016;-88
2023/01/01 07:32:55;;;;;;;6.85;2.50;;;;;;;;;;6220550;23;20087;-89
2023/01/01 07:35:23;;;;;;;7.25;1.88;;;;;;;;;;6231348;23;20020;-88
2023/01/01 07:37:51;;;;;;;5.40;2.00;;;;;;;;;;6258307;23;20040;-89
2023/01/01 07:40:29;;;;;;;4.25;1.90;;;;;;;;;;6174475;23;20397;-88
2023/01/01 07:42:58;;;;;;;7.47;1.77;;;;;;;;;;6231078;23;20023;-89
2023/01/01 07:45:26;;;;;;;4.50;2.03;;;;;;;;;;6232247;23;20020;-88
2023/01/01 07:47:55;;;;;;;4.30;1.90;;;;;;;;;;6206670;23;20154;-88
2023/01/01 07:50:26;;;;;;;7.43;2.85;;;;;;;;;;6257033;23;20091;-88
2023/01/01 07:52:54;;;;;;;6.47;1.65;;;;;;;;;;6231789;23;20016;-88
2023/01/01 07:55:24;;;;;;;5.35;1.52;;;;;;;;;;6229539;23;20016;-89
2023/01/01 07:57:52;;;;;;;9.07;1.55;;;;;;;;;;6231014;23;20020;-88
2023/01/01 08:00:50;;;;;;;7.90;1.67;;;;;;;;;;6176827;23;20050;-88
2023/01/01 08:03:18;;;;;;;11.32;1.83;;;;;;;;;;6260461;23;20016;-89
2023/01/01 08:05:45;;;;;;;5.85;1.73;;;;;;;;;;6260414;23;20030;-89
2023/01/01 08:08:38;;;;;;;3.38;1.40;;;;;;;;;;6223928;23;20092;-88
2023/01/01 08:11:06;;;;;;;7.10;1.58;;;;;;;;;;6174562;23;20020;-89
2023/01/01 08:13:36;;;;;;;6.85;1.50;;;;;;;;;;6208743;23;20352;-88
2023/01/01 08:16:09;;;;;;;4.25;1.05;;;;;;;;;;6197008;23;20024;-88
2023/01/01 08:18:41;;;;;;;6.53;1.13;;;;;;;;;;6175496;23;20027;-89
2023/01/01 08:21:09;;;;;;;5.50;1.40;;;;;;;;;;6234932;23;20019;-89
2023/01/01 08:23:37;;;;;;;5.47;1.65;;;;;;;;;;6235412;23;20024;-88
2023/01/01 08:26:15;;;;;;;6.65;1.20;;;;;;;;;;6261127;23;20074;-89
2023/01/01 08:28:44;;;;;;;2.92;1.27;;;;;;;;;;6197890;23;20051;-88
2023/01/01 08:31:11;;;;;;;6.43;1.20;;;;;;;;;;6222052;23;20024;-88
2023/01/01 08:33:39;;;;;;;4.38;1.35;;;;;;;;;;6235311;23;20024;-88
2023/01/01 08:36:10;;;;;;;3.55;1.30;;;;;;;;;;6259963;23;20023;-89
2023/01/01 08:38:37;;;;;;;4.88;1.10;;;;;;;;;;6253430;23;20030;-88
2023/01/01 08:41:05;;;;;;;11.20;1.75;;;;;;;;;;6214065;23;20055;-88
2023/01/01 08:43:33;;;;;;;3.90;1.20;;;;;;;;;;6253919;23;20491;-88
2023/01/01 08:46:05;;;;;;;5.65;2.05;;;;;;;;;;6227312;23;20027;-88
2023/01/01 08:48:33;;;;;;;7.07;0.90;;;;;;;;;;6220470;23;20040;-89
2023/01/01 08:51:25;;;;;;;6.45;1.23;;;;;;;;;;6223245;23;20016;-88
2023/01/01 08:53:53;;;;;;;2.13;1.08;;;;;;;;;;6222635;23;20081;-88
2023/01/01 08:56:51;;;;;;;2.72;1.35;;;;;;;;;;6225432;23;20040;-88
2023/01/01 08:59:22;;;;;;;4.40;1.40;;;;;;;;;;6223282;23;20012;-88
2023/01/01 09:01:58;;;;;;;3.95;1.40;;;;;;;;;;6220125;23;20024;-88
2023/01/01 09:04:28;;;;;;;3.70;1.20;;;;;;;;;;6220883;23;20020;-88
2023/01/01 09:07:02;;;;;;;5.32;1.20;;;;;;;;;;6199578;23;20024;-88
2023/01/01 09:09:36;;;;;;;4.45;1.20;;;;;;;;;;6212260;23;20021;-88
2023/01/01 09:12:08;;;;;;;3.75;1.08;;;;;;;;;;6222094;23;20051;-87
2023/01/01 09:14:35;;;;;;;3.38;1.20;;;;;;;;;;6223595;23;20020;-86
2023/01/01 09:17:03;;;;;;;5.20;1.20;;;;;;;;;;6224190;23;20092;-87
2023/01/01 09:19:32;;;;;;;8.63;1.50;;;;;;;;;;6235337;23;20112;-87
2023/01/01 09:21:59;;;;;;;6.47;1.75;;;;;;;;;;6171420;23;20095;-87
2023/01/01 09:24:51;;;;;;;4.20;1.08;;;;;;;;;;6229922;23;20016;-87
2023/01/01 09:27:20;;;;;;;2.25;0.93;;;;;;;;;;6198692;23;20522;-86
2023/01/01 09:29:47;;;;;;;5.72;0.95;;;;;;;;;;6201957;23;20023;-87
2023/01/01 09:32:17;;;;;;;5.38;1.27;;;;;;;;;;6205248;23;20025;-87
2023/01/01 09:34:45;;;;;;;4.07;1.00;;;;;;;;;;6214489;23;20107;-86
2023/01/01 09:37:44;;;;;;;7.72;2.03;;;;;;;;;;6213404;23;20023;-87
2023/01/01 09:40:55;;;;;;;2.22;1.02;;;;;;;;;;6219829;23;20024;-87
2023/01/01 09:43:58;;;;;;;4.75;1.30;;;;;;;;;;6209689;23;20465;-87
2023/01/01 09:46:26;;;;;;;4.35;1.10;;;;;;;;;;6219566;23;20098;-88
2023/01/01 09:49:40;;;;;;;2.00;0.98;;;;;;;;;;6223995;23;20020;-89
2023/01/01 09:52:11;;;;;;;3.90;1.67;;;;;;;;;;6165328;23;20021;-88
2023/01/01 09:54:50;;;;;;;4.55;1.25;;;;;;;;;;6157295;23;20153;-89
2023/01/01 09:57:18;;;;;;;5.80;1.10;;;;;;;;;;6109536;23;20025;-89
2023/01/01 09:59:53;;;;;;;3.67;1.08;;;;;;;;;;6159377;23;20542;-89
2023/01/01 10:02:32;;;;;;;3.05;1.10;;;;;;;;;;6138411;23;20048;-89
2023/01/01 10:05:51;;;;;;;5.07;1.08;;;;;;;;;;6154646;23;20021;-88
2023/01/01 10:08:55;;;;;;;4.00;0.98;;;;;;;;;;6151773;23;20013;-89
2023/01/01 10:11:46;;;;;;;3.60;1.00;;;;;;;;;;6135703;23;20013;-89
2023/01/01 10:14:28;;;;;;;6.18;1.20;;;;;;;;;;6132939;23;20496;-89
2023/01/01 10:17:08;;;;;;;6.43;1.30;;;;;;;;;;6105429;23;20295;-88
2023/01/01 10:19:44;;;;;;;3.83;1.08;;;;;;;;;;6160312;23;20029;-88
2023/01/01 10:22:19;;;;;;;4.63;0.93;;;;;;;;;;6157063;23;20516;-88
2023/01/01 10:24:59;;;;;;;5.22;0.98;;;;;;;;;;6128639;23;20021;-88
2023/01/01 10:27:37;;;;;;;3.35;1.25;;;;;;;;;;6222243;23;20784;-88
2023/01/01 10:30:14;;;;;;;5.78;1.05;;;;;;;;;;6254719;23;20019;-89
2023/01/01 10:32:52;;;;;;;5.50;1.08;;;;;;;;;;6180156;23;20024;-89
2023/01/01 10:35:55;;;;;;;4.88;1.00;;;;;;;;;;6219629;23;20036;-88
2023/01/01 10:38:25;;;;;;;3.20;1.27;;;;;;;;;;6118983;23;20096;-87
2023/01/01 10:41:01;;;;;;;4.70;1.23;;;;;;;;;;6118613;23;20126;-88
2023/01/01 10:43:54;;;;;;;4.38;1.50;;;;;;;;;;6128530;23;20021;-88
2023/01/01 10:46:23;;;;;;;4.72;1.38;;;;;;;;;;6129190;23;20583;-89
2023/01/01 10:49:10;;;;;;;3.70;1.20;;;;;;;;;;6129919;23;20114;-88
2023/01/01 10:51:43;;;;;;;4.25;1.40;;;;;;;;;;6107534;23;20014;-88
2023/01/01 10:54:38;;;;;;;4.90;1.35;;;;;;;;;;6096587;23;20025;-88
2023/01/01 10:57:42;;;;;;;3.03;1.00;;;;;;;;;;5990223;23;20086;-88
2023/01/01 11:00:19;;;;;;;4.63;1.20;;;;;;;;;;5986679;23;20023;-88
2023/01/01 11:03:14;;;;;;;4.68;2.05;;;;;;;;;;6019209;23;20023;-88
2023/01/01 11:06:06;;;;;;;4.50;1.00;;;;;;;;;;6017130;23;20042;-88
2023/01/01 11:08:36;;;;;;;5.30;0.90;;;;;;;;;;5991803;23;20043;-88
2023/01/01 11:11:21;;;;;;;6.00;2.00;;;;;;;;;;6007802;23;20190;-89
2023/01/01 11:13:57;;;;;;;4.80;1.00;;;;;;;;;;6021353;23;20054;-88
2023/01/01 11:16:30;;;;;;;4.90;0.85;;;;;;;;;;6074612;23;20027;-88
2023/01/01 11:19:16;;;;;;;7.00;1.00;;;;;;;;;;6073526;23;20409;-88
2023/01/01 11:21:46;;;;;;;5.00;0.68;;;;;;;;;;6050404;23;20105;-88
2023/01/01 11:24:23;;;;;;;6.35;1.02;;;;;;;;;;6045576;23;20376;-88
2023/01/01 11:27:40;;;;;;;4.97;1.17;;;;;;;;;;6068766;23;20467;-89
2023/01/01 11:30:25;;;;;;;3.90;1.05;;;;;;;;;;6014266;23;20019;-88
2023/01/01 11:33:00;;;;;;;4.75;0.68;;;;;;;;;;6073199;23;20378;-89
2023/01/01 11:35:54;;;;;;;5.07;0.82;;;;;;;;;;6220872;23;20016;-89
2023/01/01 11:38:23;;;;;;;6.63;0.80;;;;;;;;;;6219430;23;20330;-89
2023/01/01 11:41:02;;;;;;;3.05;0.93;;;;;;;;;;6218311;23;20459;-88
2023/01/01 11:43:38;;;;;;;5.35;0.80;;;;;;;;;;6220569;23;20017;-88
2023/01/01 11:46:09;;;;;;;4.80;0.98;;;;;;;;;;6220573;23;20020;-88
2023/01/01 11:48:43;;;;;;;5.20;0.93;;;;;;;;;;6227974;23;20074;-89
2023/01/01 11:51:36;;;;;;;2.78;0.65;;;;;;;;;;6236050;23;20016;-89
2023/01/01 11:54:27;;;;;;;2.72;0.55;;;;;;;;;;6255720;23;20400;-90
2023/01/01 11:57:03;;;;;;;4.45;0.70;;;;;;;;;;6253291;23;20063;-91
2023/01/01 11:59:57;;;;;;;7.43;1.58;;;;;;;;;;6252043;23;20050;-89
2023/01/01 12:02:38;;;;;;;6.53;0.90;;;;;;;;;;6247972;23;20020;-88
2023/01/01 12:05:12;;;;;;;4.50;0.75;;;;;;;;;;6250665;23;20023;-88
2023/01/01 12:07:54;;;;;;;3.92;0.82;;;;;;;;;;6226026;23;20483;-88
2023/01/01 12:10:33;;;;;;;5.53;0.65;;;;;;;;;;6251207;23;20020;-88
2023/01/01 12:13:05;;;;;;;3.90;0.77;;;;;;;;;;6229451;23;20027;-88
2023/01/01 12:15:42;;;;;;;6.60;0.88;;;;;;;;;;6225708;23;20139;-88
2023/01/01 12:18:20;;;;;;;2.25;1.15;;;;;;;;;;6244610;23;20375;-89
2023/01/01 12:20:55;;;;;;;4.03;0.68;;;;;;;;;;6211832;23;20325;-89
2023/01/01 12:23:22;;;;;;;3.15;0.63;;;;;;;;;;6223375;23;20527;-88
2023/01/01 12:26:37;;;;;;;4.90;0.90;;;;;;;;;;6213208;23;20078;-88
2023/01/01 12:29:27;;;;;;;1.85;1.17;;;;;;;;;;6213120;23;20020;-89
2023/01/01 12:32:14;;;;;;;1.42;0.60;;;;;;;;;;6249468;23;20051;-90
2023/01/01 12:35:03;;;;;;;5.38;1.23;;;;;;;;;;6224335;23;20090;-89
2023/01/01 12:37:48;;;;;;;5.45;0.98;;;;;;;;;;6251525;23;20016;-89
2023/01/01 12:40:42;;;;;;;4.93;0.90;;;;;;;;;;6251966;23;20020;-89
2023/01/01 12:43:16;;;;;;;2.97;0.60;;;;;;;;;;6214076;23;20020;-89
2023/01/01 12:46:07;;;;;;;3.33;0.70;;;;;;;;;;6254059;23;20051;-89
2023/01/01 12:48:53;;;;;;;5.00;1.17;;;;;;;;;;6222780;23;20330;-89
2023/01/01 12:51:46;;;;;;;3.60;0.77;;;;;;;;;;6214576;23;20013;-89
2023/01/01 12:54:33;;;;;;;3.60;0.57;;;;;;;;;;6227098;23;20016;-89
2023/01/01 12:57:11;;;;;;;2.40;0.90;;;;;;;;;;6224173;23;20028;-89
2023/01/01 12:59:48;;;;;;;4.13;0.60;;;;;;;;;;6213548;23;20035;-89
2023/01/01 13:02:32;;;;;;;3.45;0.70;;;;;;;;;;6225603;23;20040;-89
2023/01/01 13:05:38;;;;;;;5.45;1.17;;;;;;;;;;6215050;23;20099;-89
2023/01/01 13:08:12;;;;;;;6.50;1.25;;;;;;;;;;6213961;23;20034;-89
2023/01/01 13:10:43;;;;;;;2.83;0.60;;;;;;;;;;6199524;23;20028;-89
2023/01/01 13:13:36;;;;;;;7.93;0.80;;;;;;;;;;6213299;23;20031;-89
2023/01/01 13:16:04;;;;;;;3.17;0.70;;;;;;;;;;6188542;23;20024;-89
2023/01/01 13:18:40;;;;;;;2.20;0.70;;;;;;;;;;6224039;23;20021;-89
2023/01/01 13:21:17;;;;;;;3.70;0.63;;;;;;;;;;6198754;23;20012;-89
2023/01/01 13:23:45;;;;;;;2.42;0.75;;;;;;;;;;6222232;23;20016;-89
2023/01/01 13:26:16;;;;;;;3.65;1.02;;;;;;;;;;6221957;23;20027;-89
2023/01/01 13:28:56;;;;;;;2.72;0.80;;;;;;;;;;6186754;23;20095;-89
2023/01/01 13:31:39;;;;;;;5.38;0.85;;;;;;;;;;6221260;23;20016;-89
2023/01/01 13:34:29;;;;;;;4.93;0.68;;;;;;;;;;6187086;23;20070;-89
2023/01/01 13:37:10;;;;;;;5.75;1.05;;;;;;;;;;6222307;23;20020;-89
2023/01/01 13:39:50;;;;;;;2.97;0.70;;;;;;;;;;6221977;23;20445;-89
2023/01/01 13:42:51;;;;;;;5.38;0.93;;;;;;;;;;6222674;23;20013;-89
2023/01/01 13:45:42;;;;;;;5.80;1.00;;;;;;;;;;6223669;23;20027;-88
2023/01/01 13:48:52;;;;;;;8.38;1.10;;;;;;;;;;6210006;23;20048;-89
2023/01/01 13:51:58;;;;;;;3.72;1.15;;;;;;;;;;6229996;23;20424;-91
2023/01/01 13:54:58;;;;;;;6.35;1.13;;;;;;;;;;6235165;23;20016;-90
2023/01/01 13:57:50;;;;;;;6.90;1.02;;;;;;;;;;6233870;23;20440;-89
2023/01/01 14:00:25;;;;;;;4.93;0.75;;;;;;;;;;6233113;23;20016;-89
2023/01/01 14:03:07;;;;;;;4.38;1.40;;;;;;;;;;6239084;23;20036;-88
2023/01/01 14:05:49;;;;;;;3.17;0.90;;;;;;;;;;6240974;23;20016;-89
2023/01/01 14:08:35;;;;;;;4.80;1.10;;;;;;;;;;6240584;23;20023;-88
2023/01/01 14:11:28;;;;;;;5.40;0.98;;;;;;;;;;6227733;23;20015;-89
2023/01/01 14:13:56;;;;;;;5.13;1.05;;;;;;;;;;6238483;23;20067;-89
2023/01/01 14:16:49;;;;;;;4.93;1.17;;;;;;;;;;6237892;23;20314;-88
2023/01/01 14:19:18;;;;;;;8.95;1.25;;;;;;;;;;6239299;23;20024;-89
2023/01/01 14:21:54;;;;;;;3.33;1.15;;;;;;;;;;6212721;23;20040;-89
2023/01/01 14:24:23;;;;;;;7.15;1.63;;;;;;;;;;6201636;23;20016;-89
2023/01/01 14:26:55;;;;;;;4.68;1.02;;;;;;;;;;6198746;23;20075;-88
2023/01/01 14:29:31;;;;;;;6.50;1.08;;;;;;;;;;6230058;23;20062;-89
2023/01/01 14:32:20;;;;;;;7.18;1.10;;;;;;;;;;6227798;23;20013;-89
2023/01/01 14:35:02;;;;;;;7.55;1.08;;;;;;;;;;6223270;23;20096;-89
2023/01/01 14:37:32;;;;;;;5.97;1.30;;;;;;;;;;6200097;23;20091;-88
2023/01/01 14:40:08;;;;;;;11.98;1.27;;;;;;;;;;6221494;23;20449;-88
2023/01/01 14:42:44;;;;;;;4.47;1.02;;;;;;;;;;6221108;23;20036;-88
2023/01/01 14:45:18;;;;;;;5.72;1.33;;;;;;;;;;6209702;23;20032;-89
2023/01/01 14:47:53;;;;;;;4.60;1.40;;;;;;;;;;6210304;23;20017;-89
2023/01/01 14:50:31;;;;;;;7.10;1.27;;;;;;;;;;6252235;23;20035;-89
2023/01/01 14:53:12;;;;;;;5.78;1.17;;;;;;;;;;6252909;23;20340;-89
2023/01/01 14:56:07;;;;;;;8.88;1.33;;;;;;;;;;6225987;23;20031;-88
2023/01/01 14:58:40;;;;;;;4.85;1.00;;;;;;;;;;6189795;23;20020;-89
2023/01/01 15:01:17;;;;;;;4.20;0.70;;;;;;;;;;6228098;23;20360;-89
2023/01/01 15:03:58;;;;;;;6.30;1.42;;;;;;;;;;6165261;23;20403;-89
2023/01/01 15:06:27;;;;;;;4.28;1.10;;;;;;;;;;6200048;23;20020;-88
2023/01/01 15:09:00;;;;;;;8.27;1.55;;;;;;;;;;6167719;23;20024;-89
2023/01/01 15:11:34;;;;;;;6.40;1.20;;;;;;;;;;6201911;23;20019;-89
2023/01/01 15:14:01;;;;;;;5.63;1.30;;;;;;;;;;6250516;23;20031;-89
2023/01/01 15:16:33;;;;;;;7.30;1.20;;;;;;;;;;6225980;23;20445;-89
2023/01/01 15:19:17;;;;;;;6.78;0.88;;;;;;;;;;6214962;23;20023;-88
2023/01/01 15:21:46;;;;;;;7.07;1.00;;;;;;;;;;6188735;23;20031;-89
2023/01/01 15:24:29;;;;;;;7.03;1.45;;;;;;;;;;6224102;23;20379;-89
2023/01/01 15:26:58;;;;;;;6.70;1.17;;;;;;;;;;6214805;23;20365;-89
2023/01/01 15:29:29;;;;;;;10.57;1.48;;;;;;;;;;6190716;23;20070;-89
2023/01/01 15:32:08;;;;;;;11.27;1.65;;;;;;;;;;6251300;23;20016;-89
2023/01/01 15:34:49;;;;;;;6.00;1.15;;;;;;;;;;6225923;23;20020;-89
2023/01/01 15:37:30;;;;;;;7.50;1.40;;;;;;;;;;6225810;23;20023;-89
2023/01/01 15:40:48;;;;;;;5.97;1.35;;;;;;;;;;6215788;23;20587;-89
2023/01/01 15:43:21;;;;;;;5.72;1.27;;;;;;;;;;6226609;23;20013;-89
2023/01/01 15:45:52;;;;;;;18.65;1.85;;;;;;;;;;6253631;23;20035;-89
2023/01/01 15:48:49;;;;;;;7.78;1.70;;;;;;;;;;6200223;23;20095;-89